createdAt,value
2019-05-20T21:42:29.597Z,11.63
2019-05-20T21:44:59.886Z,10.40
2019-05-20T21:47:32.044Z,11.30
2019-05-20T21:50:02.100Z,10.07
2019-05-20T21:52:32.086Z,9.50
2019-05-20T21:55:02.164Z,11.73
2019-05-20T21:57:32.203Z,12.93
2019-05-20T22:00:02.349Z,15.13
2019-05-20T22:02:32.485Z,13.00
2019-05-20T22:05:02.690Z,15.67
2019-05-20T22:07:32.830Z,17.97
2019-05-20T22:10:02.903Z,19.27
2019-05-20T22:12:32.768Z,18.23
2019-05-20T22:15:02.877Z,21.97
2019-05-20T22:17:33.051Z,21.03
2019-05-20T22:20:03.005Z,20.80
2019-05-20T22:22:46.272Z,21.30
2019-05-20T22:25:15.315Z,20.47
2019-05-20T22:27:44.372Z,25.70
2019-05-20T22:30:13.702Z,22.27
2019-05-20T22:32:42.699Z,25.47
2019-05-20T22:35:12.054Z,27.13
2019-05-20T22:37:41.110Z,21.87
2019-05-20T22:40:10.361Z,23.73
2019-05-20T22:42:39.420Z,23.73
2019-05-20T22:45:08.591Z,23.73
2019-05-20T22:47:37.540Z,25.97
2019-05-20T22:50:06.598Z,24.17
2019-05-20T22:52:35.662Z,24.27
2019-05-20T22:55:11.069Z,23.37
2019-05-20T22:57:40.161Z,24.70
2019-05-20T23:00:09.290Z,25.47
2019-05-20T23:02:38.255Z,26.73
2019-05-20T23:05:07.413Z,27.10
2019-05-20T23:07:36.478Z,26.80
2019-05-20T23:10:05.529Z,27.77
2019-05-20T23:12:34.588Z,28.23
2019-05-20T23:15:03.650Z,27.30
2019-05-20T23:17:32.681Z,29.67
2019-05-20T23:20:01.792Z,27.97
2019-05-20T23:22:30.868Z,28.37
2019-05-20T23:24:59.921Z,28.40
2019-05-20T23:27:28.889Z,26.00
2019-05-20T23:29:57.961Z,24.40
2019-05-20T23:32:27.685Z,24.37
2019-05-20T23:34:56.823Z,24.17
2019-05-20T23:37:25.855Z,25.97
2019-05-20T23:39:54.935Z,26.17
2019-05-20T23:42:23.933Z,25.40
2019-05-20T23:44:52.982Z,25.20
2019-05-20T23:47:22.049Z,23.93
2019-05-20T23:49:51.089Z,19.50
2019-05-20T23:52:20.084Z,23.27
2019-05-20T23:54:49.610Z,24.00
2019-05-20T23:57:18.656Z,23.03
2019-05-20T23:59:47.700Z,19.70
